createdAt,value
2023-01-25T00:03:15.509Z,12.57
2023-01-25T00:13:17.383Z,15.32
2023-01-25T00:23:19.133Z,13.48
2023-01-25T00:33:20.691Z,13.10
2023-01-25T00:43:22.435Z,11.68
2023-01-25T00:53:24.309Z,12.77
2023-01-25T01:03:26.166Z,10.80
2023-01-25T01:13:28.673Z,12.30
2023-01-25T01:23:30.720Z,11.35
2023-01-25T01:33:33.977Z,10.13
2023-01-25T01:43:37.196Z,15.65
2023-01-25T01:53:45.177Z,9.63
2023-01-25T02:03:47.516Z,10.60
2023-01-25T02:13:50.183Z,10.57
2023-01-25T02:24:00.523Z,11.07
2023-01-25T02:34:02.286Z,9.73
2023-01-25T02:44:13.962Z,9.75
2023-01-25T02:54:18.209Z,8.80
2023-01-25T03:04:20.172Z,6.97
2023-01-25T03:14:23.208Z,7.95
2023-01-25T03:24:25.212Z,10.70
2023-01-25T03:34:27.091Z,9.38
2023-01-25T03:44:28.993Z,9.02
2023-01-25T03:54:32.675Z,7.10
2023-01-25T04:04:35.545Z,7.72
2023-01-25T04:14:44.402Z,6.50
2023-01-25T04:24:52.773Z,7.65
2023-01-25T04:34:55.446Z,7.10
2023-01-25T04:45:01.074Z,8.32
2023-01-25T04:55:03.483Z,6.85
2023-01-25T05:05:11.355Z,8.82
2023-01-25T05:15:13.861Z,7.00
2023-01-25T05:25:34.209Z,6.55
2023-01-25T05:35:36.095Z,8.15
2023-01-25T05:45:39.768Z,9.02
2023-01-25T05:55:42.362Z,10.40
2023-01-25T06:05:56.556Z,6.88
2023-01-25T06:15:59.071Z,7.28
2023-01-25T06:26:16.061Z,7.60
2023-01-25T06:36:19.263Z,6.30
2023-01-25T06:46:21.225Z,8.43
2023-01-25T06:56:23.656Z,11.32
2023-01-25T07:06:32.677Z,9.35
2023-01-25T07:16:37.233Z,10.88
2023-01-25T07:26:39.145Z,8.73
2023-01-25T07:36:41.027Z,6.88
2023-01-25T07:46:42.885Z,5.80
2023-01-25T07:56:44.758Z,8.52
2023-01-25T08:06:46.677Z,8.57
2023-01-25T08:16:48.495Z,10.68
2023-01-25T08:26:51.280Z,6.95
2023-01-25T08:36:53.377Z,6.88
2023-01-25T08:46:55.278Z,7.10
2023-01-25T08:56:57.011Z,7.22
2023-01-25T09:06:58.820Z,8.95
2023-01-25T09:17:00.641Z,7.85
2023-01-25T09:27:02.385Z,10.02
2023-01-25T09:37:04.165Z,5.35
2023-01-25T09:47:38.427Z,5.40
2023-01-25T09:57:41.143Z,5.72
2023-01-25T10:08:14.425Z,6.22
2023-01-25T10:18:44.029Z,7.32
2023-01-25T10:28:52.146Z,6.93
2023-01-25T10:39:00.925Z,7.30
2023-01-25T10:49:20.608Z,10.50
2023-01-25T10:59:26.675Z,11.10
2023-01-25T11:09:39.529Z,15.50
2023-01-25T11:19:41.303Z,13.45
2023-01-25T11:29:43.095Z,12.50
2023-01-25T11:39:44.716Z,13.45
2023-01-25T11:50:10.776Z,11.40
2023-01-25T12:00:37.409Z,15.05
2023-01-25T12:11:06.464Z,10.73
2023-01-25T12:21:31.690Z,12.90
2023-01-25T12:32:22.899Z,11.73
2023-01-25T12:42:40.489Z,11.73
2023-01-25T12:52:51.858Z,12.43
2023-01-25T13:03:24.260Z,10.40
2023-01-25T13:13:27.774Z,11.30
2023-01-25T13:23:43.996Z,12.15
2023-01-25T13:33:45.851Z,10.55
2023-01-25T13:43:48.608Z,10.82
2023-01-25T13:54:00.149Z,10.38
2023-01-25T14:04:04.319Z,12.70
2023-01-25T14:14:21.007Z,12.68
2023-01-25T14:24:22.794Z,10.68
2023-01-25T14:34:26.016Z,12.10
2023-01-25T14:44:27.820Z,11.43
2023-01-25T14:54:31.708Z,13.13
2023-01-25T15:04:35.507Z,10.32
2023-01-25T15:14:51.130Z,12.88
2023-01-25T15:24:58.221Z,11.95
2023-01-25T15:35:00.406Z,10.43
2023-01-25T15:45:05.546Z,11.48
2023-01-25T15:55:11.457Z,12.43
2023-01-25T16:05:13.256Z,15.02
2023-01-25T16:15:15.041Z,14.70
2023-01-25T16:25:16.957Z,12.63
2023-01-25T16:35:18.917Z,10.23
2023-01-25T16:45:20.688Z,12.43
2023-01-25T16:55:22.566Z,12.57
2023-01-25T17:05:24.366Z,10.40
2023-01-25T17:15:26.205Z,10.55
2023-01-25T17:25:28.005Z,12.75
2023-01-25T17:35:29.743Z,10.85
2023-01-25T17:45:38.256Z,10.68
2023-01-25T17:55:40.025Z,13.57
2023-01-25T18:05:41.766Z,9.65
